Terminal Aerodrome Forecast
Issued by NWS

Home | Current Version | Previous Version | Graphics & Text | Print | Product List | Glossary On
Versions: 1 2 3 4 5 6 7 8 9 10 11 12 13 14 15 16 17 18 19 20 21 22 23 24 25 26 27 28 29 30 31 32 33 34 35
588
FTUS45 KGGW 271120
TAFOLF
TAF
KOLF 271120Z 2712/2812 06005KT 4SM -RA BR OVC007
     FM271300 07006KT P6SM VCSH OVC010
     FM271900 07010KT P6SM -RA OVC025
     FM280000 08011KT P6SM -RA OVC040
     FM280500 07009KT P6SM VCSH OVC050=

USA.gov is the U.S. government's official web portal to all federal, state and local government web resources and services.